Time;durP1;ratioP1;P1;durP2;ratioP2;P2;SDS_P1;SDS_P2;PMS_P1;PMS_P2;Temp;Humidity;BMP_temperature;BMP_pressure;BME280_temperature;BME280_humidity;BME280_pressure;Samples;Min_cycle;Max_cycle;Signal;HPM_P1;HPM_P2
2023/11/04 00:01:04;;;;;;;3.53;0.82;;;5.40;99.90;;;;;;5059676;28;20037;-70
2023/11/04 00:03:30;;;;;;;4.05;1.13;;;5.40;99.90;;;;;;5060058;28;20041;-70
2023/11/04 00:05:55;;;;;;;5.15;1.00;;;5.50;99.90;;;;;;5064563;28;20826;-71
2023/11/04 00:08:21;;;;;;;3.33;0.82;;;5.50;99.90;;;;;;5067568;28;20069;-71
2023/11/04 00:10:49;;;;;;;6.47;0.93;;;5.40;99.90;;;;;;5062581;28;20047;-71
2023/11/04 00:13:15;;;;;;;5.78;1.42;;;5.50;99.90;;;;;;5059410;28;20051;-71
2023/11/04 00:15:41;;;;;;;3.25;0.80;;;5.50;99.90;;;;;;5062775;28;20041;-71
2023/11/04 00:18:07;;;;;;;5.38;0.95;;;5.50;99.90;;;;;;5053363;28;20079;-70
2023/11/04 00:20:32;;;;;;;2.08;0.90;;;5.50;99.90;;;;;;5048543;28;20443;-71
2023/11/04 00:22:58;;;;;;;6.63;0.90;;;5.50;99.90;;;;;;5048289;28;20087;-71
2023/11/04 00:25:23;;;;;;;;;;;5.50;99.90;;;;;;5054285;28;20029;-71
2023/11/04 00:27:49;;;;;;;3.40;0.73;;;5.50;99.90;;;;;;5048391;28;19916;-71
2023/11/04 00:30:14;;;;;;;4.45;1.00;;;5.60;99.90;;;;;;5052474;28;20052;-71
2023/11/04 00:32:40;;;;;;;4.10;1.13;;;5.60;99.90;;;;;;5067867;28;20036;-71
2023/11/04 00:35:06;;;;;;;3.65;1.23;;;5.60;99.90;;;;;;5072272;28;20414;-71
2023/11/04 00:37:33;;;;;;;3.97;1.17;;;5.60;99.90;;;;;;5068074;28;20380;-70
2023/11/04 00:40:05;;;;;;;6.63;0.80;;;5.70;99.90;;;;;;5073729;28;20039;-71
2023/11/04 00:42:34;;;;;;;5.30;0.93;;;5.70;99.90;;;;;;5067880;28;20054;-70
2023/11/04 00:45:00;;;;;;;6.53;0.80;;;5.70;99.90;;;;;;5064464;28;20040;-70
2023/11/04 00:47:25;;;;;;;8.95;1.63;;;5.70;99.90;;;;;;5067460;28;20051;-71
2023/11/04 00:49:51;;;;;;;5.57;1.40;;;5.80;99.90;;;;;;5070253;28;20079;-71
2023/11/04 00:52:17;;;;;;;10.15;0.98;;;5.80;99.90;;;;;;5067060;28;20066;-70
2023/11/04 00:54:42;;;;;;;5.65;1.00;;;5.80;99.90;;;;;;5068636;28;20040;-71
2023/11/04 00:57:10;;;;;;;7.10;1.00;;;5.80;99.90;;;;;;5067589;28;20044;-71
2023/11/04 00:59:35;;;;;;;4.45;0.90;;;5.80;99.90;;;;;;5067970;28;20048;-71
2023/11/04 01:02:01;;;;;;;5.45;0.95;;;5.80;99.90;;;;;;5061391;28;20612;-70
2023/11/04 01:04:27;;;;;;;5.10;0.80;;;5.80;99.90;;;;;;5067381;28;20048;-71
2023/11/04 01:06:55;;;;;;;5.38;1.05;;;5.90;99.90;;;;;;5067579;28;20036;-71
2023/11/04 01:09:21;;;;;;;5.82;0.95;;;5.80;99.90;;;;;;5066304;28;20040;-71
2023/11/04 01:11:47;;;;;;;3.58;1.20;;;5.90;99.90;;;;;;5072904;28;20041;-71
2023/11/04 01:14:12;;;;;;;6.70;1.33;;;5.90;99.90;;;;;;5071544;28;20045;-70
2023/11/04 01:16:38;;;;;;;4.63;0.90;;;5.90;99.90;;;;;;5068402;28;20047;-71
2023/11/04 01:19:04;;;;;;;4.30;0.90;;;5.90;99.90;;;;;;5068844;28;20040;-71
2023/11/04 01:21:31;;;;;;;8.70;1.13;;;5.90;99.90;;;;;;5067028;28;20036;-71
2023/11/04 01:23:56;;;;;;;5.18;1.00;;;5.90;99.90;;;;;;5067083;28;20123;-71
2023/11/04 01:26:22;;;;;;;4.45;1.20;;;5.90;99.90;;;;;;5067193;28;20127;-71
2023/11/04 01:28:48;;;;;;;2.22;0.98;;;6.00;99.90;;;;;;5066781;28;20043;-70
2023/11/04 01:31:14;;;;;;;4.38;0.85;;;6.00;99.90;;;;;;5070712;28;20033;-71
2023/11/04 01:33:40;;;;;;;7.53;1.90;;;6.00;99.90;;;;;;5068775;28;20039;-71
2023/11/04 01:36:07;;;;;;;4.15;1.10;;;6.00;99.90;;;;;;5072857;28;20077;-71
2023/11/04 01:38:32;;;;;;;2.22;1.10;;;6.00;99.90;;;;;;5065659;28;20147;-70
2023/11/04 01:40:58;;;;;;;1.63;0.90;;;6.00;99.90;;;;;;5070472;28;20477;-71
2023/11/04 01:43:28;;;;;;;1.95;0.90;;;6.00;99.90;;;;;;5066549;28;20043;-71
2023/11/04 01:46:09;;;;;;;3.35;0.88;;;6.00;99.90;;;;;;5069771;28;20044;-71
2023/11/04 01:48:39;;;;;;;2.35;0.70;;;6.00;99.90;;;;;;5065888;28;20500;-71
2023/11/04 01:51:05;;;;;;;2.95;1.10;;;6.00;99.90;;;;;;5068820;28;20094;-71
2023/11/04 01:53:32;;;;;;;1.70;0.93;;;6.00;99.90;;;;;;5066352;28;20101;-70
2023/11/04 01:55:57;;;;;;;2.67;0.70;;;6.00;99.90;;;;;;5068957;28;20044;-71
2023/11/04 01:58:23;;;;;;;2.72;0.80;;;6.00;99.90;;;;;;5064079;28;20041;-70
2023/11/04 02:00:49;;;;;;;2.90;1.00;;;6.00;99.90;;;;;;5067700;28;20037;-71
2023/11/04 02:03:16;;;;;;;4.00;1.00;;;6.00;99.90;;;;;;5065504;28;20043;-71
2023/11/04 02:05:42;;;;;;;3.88;0.88;;;6.00;99.90;;;;;;5066487;28;20170;-71
2023/11/04 02:08:08;;;;;;;1.77;0.82;;;6.00;99.90;;;;;;5063948;28;20115;-71
2023/11/04 02:10:34;;;;;;;1.15;0.70;;;6.00;99.90;;;;;;5065452;28;20715;-70
2023/11/04 02:13:01;;;;;;;2.90;0.80;;;6.00;99.90;;;;;;5067979;28;20037;-70
2023/11/04 02:15:26;;;;;;;1.90;0.88;;;6.10;99.90;;;;;;5065920;28;20049;-70
2023/11/04 02:17:52;;;;;;;4.35;1.25;;;6.10;99.90;;;;;;5068648;28;20404;-70
2023/11/04 02:20:20;;;;;;;7.30;1.80;;;6.10;99.90;;;;;;5067381;28;20480;-70
2023/11/04 02:22:46;;;;;;;3.85;1.25;;;6.10;99.90;;;;;;5067227;28;20506;-71
2023/11/04 02:25:12;;;;;;;2.42;1.00;;;6.10;99.90;;;;;;5065091;28;20156;-71
2023/11/04 02:27:42;;;;;;;2.88;1.05;;;6.10;99.90;;;;;;5066060;28;20511;-71
2023/11/04 02:30:08;;;;;;;1.88;0.85;;;6.10;99.90;;;;;;5066029;28;20483;-70
2023/11/04 02:32:33;;;;;;;8.65;1.50;;;6.10;99.90;;;;;;5044476;28;20045;-70
2023/11/04 02:35:03;;;;;;;3.85;0.98;;;6.10;99.90;;;;;;5045701;28;20045;-70
2023/11/04 02:37:29;;;;;;;1.75;0.80;;;6.10;99.90;;;;;;5045779;28;20116;-71
2023/11/04 02:39:55;;;;;;;1.50;0.80;;;6.10;99.90;;;;;;5045779;28;20100;-70
2023/11/04 02:42:20;;;;;;;2.78;0.88;;;6.10;99.90;;;;;;5045433;28;20081;-70
2023/11/04 02:44:46;;;;;;;;;;;6.10;99.90;;;;;;5046529;28;20033;-70
2023/11/04 02:47:12;;;;;;;2.30;0.80;;;6.10;99.90;;;;;;5046098;28;20311;-71
2023/11/04 02:49:38;;;;;;;2.50;0.70;;;6.10;99.90;;;;;;5045238;28;20083;-71
2023/11/04 02:52:03;;;;;;;1.00;0.60;;;6.10;99.90;;;;;;5045905;28;20565;-70
2023/11/04 02:54:29;;;;;;;3.65;0.93;;;6.10;99.90;;;;;;5044578;28;20067;-71
2023/11/04 02:56:55;;;;;;;3.55;0.85;;;6.20;99.90;;;;;;5046176;28;20087;-71
2023/11/04 02:59:20;;;;;;;1.42;0.90;;;6.20;99.90;;;;;;5045569;28;20041;-71
2023/11/04 03:01:46;;;;;;;0.80;0.60;;;6.20;99.90;;;;;;5044349;28;20579;-71
2023/11/04 03:04:12;;;;;;;2.45;1.20;;;6.20;99.90;;;;;;5046110;28;20045;-71
2023/11/04 03:06:39;;;;;;;2.67;1.35;;;6.20;99.90;;;;;;5048466;28;20082;-71
2023/11/04 03:09:06;;;;;;;4.03;0.82;;;6.10;99.90;;;;;;5045860;28;20040;-71
2023/11/04 03:11:31;;;;;;;1.75;0.65;;;6.00;99.90;;;;;;5044855;28;20095;-70
2023/11/04 03:13:57;;;;;;;3.80;1.02;;;6.00;99.90;;;;;;5044051;28;20036;-72
2023/11/04 03:16:22;;;;;;;;;;;5.90;99.90;;;;;;5047297;28;20069;-71
2023/11/04 03:18:48;;;;;;;2.38;0.70;;;5.90;99.90;;;;;;5049200;28;19974;-70
2023/11/04 03:21:15;;;;;;;1.33;0.60;;;5.90;99.90;;;;;;5045721;28;20068;-71
2023/11/04 03:23:41;;;;;;;3.22;1.15;;;5.90;99.90;;;;;;5045870;28;20138;-71
2023/11/04 03:26:10;;;;;;;1.25;0.80;;;5.90;99.90;;;;;;5045833;28;20595;-71
2023/11/04 03:28:36;;;;;;;2.75;1.00;;;5.90;99.90;;;;;;5045647;28;20528;-71
2023/11/04 03:31:03;;;;;;;1.40;0.75;;;5.90;99.90;;;;;;5042539;28;20116;-71
2023/11/04 03:33:29;;;;;;;1.85;1.08;;;5.80;99.90;;;;;;5049990;28;20045;-71
2023/11/04 03:35:55;;;;;;;1.92;0.95;;;5.80;99.90;;;;;;5045830;28;20072;-71
2023/11/04 03:38:21;;;;;;;1.48;0.90;;;5.80;99.90;;;;;;5045855;28;20453;-71
2023/11/04 03:40:47;;;;;;;1.85;0.90;;;5.80;99.90;;;;;;5044599;28;20041;-71
2023/11/04 03:43:12;;;;;;;2.60;0.73;;;5.70;99.90;;;;;;5049490;28;20094;-71
2023/11/04 03:45:38;;;;;;;1.23;0.73;;;5.70;99.90;;;;;;5045482;28;20047;-71
2023/11/04 03:48:04;;;;;;;;;;;5.70;99.90;;;;;;5048976;28;20040;-71
2023/11/04 03:50:29;;;;;;;1.60;0.70;;;5.70;99.90;;;;;;5044637;28;19917;-71
2023/11/04 03:52:55;;;;;;;3.50;1.20;;;5.60;99.90;;;;;;5048710;28;20033;-71
2023/11/04 03:55:21;;;;;;;2.55;0.88;;;5.60;99.90;;;;;;5050514;28;20452;-71
2023/11/04 03:57:47;;;;;;;3.47;0.77;;;5.60;99.90;;;;;;5048924;28;20123;-70
2023/11/04 04:00:14;;;;;;;1.83;0.90;;;5.50;99.90;;;;;;5048286;28;20191;-71
2023/11/04 04:02:40;;;;;;;1.60;0.88;;;5.50;99.90;;;;;;5070999;28;20040;-71
2023/11/04 04:05:07;;;;;;;3.00;0.98;;;5.50;99.90;;;;;;5070905;28;20380;-71
2023/11/04 04:07:33;;;;;;;5.72;1.02;;;5.50;99.90;;;;;;5068853;28;20075;-71
2023/11/04 04:09:59;;;;;;;1.58;0.80;;;5.50;99.90;;;;;;5069126;28;20082;-71
2023/11/04 04:12:25;;;;;;;1.23;0.70;;;5.50;99.90;;;;;;5071344;28;20072;-71
2023/11/04 04:14:51;;;;;;;3.88;0.70;;;5.50;99.90;;;;;;5070356;28;20071;-71
2023/11/04 04:17:49;;;;;;;1.00;0.65;;;5.50;99.90;;;;;;5066994;28;20043;-71
2023/11/04 04:20:20;;;;;;;2.58;0.95;;;5.50;99.90;;;;;;5050401;28;20047;-71
2023/11/04 04:22:46;;;;;;;1.80;0.70;;;5.50;99.90;;;;;;5068091;28;20036;-71
2023/11/04 04:25:12;;;;;;;1.10;0.50;;;5.50;99.90;;;;;;5068692;28;20612;-71
2023/11/04 04:27:37;;;;;;;0.80;0.50;;;5.50;99.90;;;;;;5067932;28;20045;-71
2023/11/04 04:30:04;;;;;;;2.67;0.77;;;5.50;99.90;;;;;;5068742;28;20565;-71
2023/11/04 04:32:30;;;;;;;2.63;0.60;;;5.50;99.90;;;;;;5047450;28;20037;-71
2023/11/04 04:34:56;;;;;;;0.73;0.60;;;5.60;99.90;;;;;;5051076;28;20415;-71
2023/11/04 04:37:23;;;;;;;2.10;0.98;;;5.60;99.90;;;;;;5050856;28;20037;-70
2023/11/04 04:39:49;;;;;;;1.50;0.70;;;5.70;99.90;;;;;;5050097;28;20045;-70
2023/11/04 04:42:15;;;;;;;2.38;1.00;;;5.60;99.90;;;;;;5047645;28;20108;-71
2023/11/04 04:44:41;;;;;;;1.60;0.65;;;5.70;99.90;;;;;;5048623;28;20041;-71
2023/11/04 04:47:06;;;;;;;1.77;0.70;;;5.70;99.90;;;;;;5048146;28;20102;-70
2023/11/04 04:49:32;;;;;;;0.57;0.55;;;5.70;99.90;;;;;;5048262;28;20068;-70
2023/11/04 04:51:58;;;;;;;1.88;0.75;;;5.70;99.90;;;;;;5044423;28;20459;-70
2023/11/04 04:54:23;;;;;;;1.92;0.73;;;5.80;99.90;;;;;;5050164;28;20477;-71
2023/11/04 04:56:49;;;;;;;3.00;0.73;;;5.80;99.90;;;;;;5047701;28;20044;-71
2023/11/04 04:59:16;;;;;;;1.65;1.00;;;5.80;99.90;;;;;;5049665;28;20528;-71
2023/11/04 05:01:42;;;;;;;1.55;0.90;;;5.80;99.90;;;;;;5045597;28;20037;-70
2023/11/04 05:04:08;;;;;;;4.20;0.90;;;5.90;99.90;;;;;;5048783;28;20066;-70
2023/11/04 05:06:33;;;;;;;1.55;0.95;;;5.90;99.90;;;;;;5047917;28;20041;-70
2023/11/04 05:08:59;;;;;;;2.03;0.90;;;5.90;99.90;;;;;;5048002;28;20033;-70
2023/11/04 05:11:26;;;;;;;1.60;0.88;;;5.90;99.90;;;;;;5050228;28;20044;-70
2023/11/04 05:13:52;;;;;;;2.45;1.08;;;5.90;99.90;;;;;;5049901;28;20060;-71
2023/11/04 05:16:18;;;;;;;1.35;0.80;;;5.90;99.90;;;;;;5051161;28;20052;-70
2023/11/04 05:18:44;;;;;;;4.28;1.55;;;6.00;99.90;;;;;;5048905;28;20033;-71
2023/11/04 05:21:09;;;;;;;1.40;1.10;;;6.00;99.90;;;;;;5048432;28;20051;-70
2023/11/04 05:23:35;;;;;;;3.50;1.30;;;6.00;99.90;;;;;;5047055;28;20037;-70
2023/11/04 05:26:01;;;;;;;4.35;0.85;;;6.00;99.90;;;;;;5047717;28;20045;-71
2023/11/04 05:28:27;;;;;;;;;;;6.00;99.90;;;;;;5048423;28;20053;-71
2023/11/04 05:30:53;;;;;;;1.55;0.95;;;6.00;99.90;;;;;;5048915;28;20403;-70
2023/11/04 05:33:19;;;;;;;4.20;1.10;;;6.00;99.90;;;;;;5047378;28;20879;-71
2023/11/04 05:35:46;;;;;;;2.70;1.10;;;6.00;99.90;;;;;;5050177;28;20091;-71
2023/11/04 05:38:11;;;;;;;4.22;1.27;;;6.00;99.90;;;;;;5047108;28;20041;-70
2023/11/04 05:40:38;;;;;;;2.72;1.15;;;6.00;99.90;;;;;;5048906;28;20053;-70
2023/11/04 05:43:04;;;;;;;2.88;0.90;;;6.10;99.90;;;;;;5047089;28;20503;-71
2023/11/04 05:45:30;;;;;;;5.60;1.20;;;6.10;99.90;;;;;;5048982;28;20073;-71
2023/11/04 05:47:56;;;;;;;2.42;1.17;;;6.10;99.90;;;;;;5043198;28;20065;-70
2023/11/04 05:50:22;;;;;;;4.70;1.10;;;6.10;99.90;;;;;;5047968;28;20044;-70
2023/11/04 05:52:48;;;;;;;8.73;1.35;;;6.10;99.90;;;;;;5046673;28;20044;-71
2023/11/04 05:55:14;;;;;;;2.25;1.00;;;6.10;99.90;;;;;;5047326;28;20046;-71
2023/11/04 05:57:40;;;;;;;1.73;1.00;;;6.10;99.90;;;;;;5046254;28;20106;-70
2023/11/04 06:00:11;;;;;;;3.40;1.00;;;6.10;99.90;;;;;;5053008;28;20388;-70
2023/11/04 06:02:45;;;;;;;2.97;1.08;;;6.10;99.90;;;;;;5042196;28;20126;-70
2023/11/04 06:05:14;;;;;;;4.03;1.52;;;6.10;99.90;;;;;;5045580;28;20492;-71
2023/11/04 06:07:40;;;;;;;2.60;1.20;;;6.10;99.90;;;;;;5046196;28;20070;-70
2023/11/04 06:10:08;;;;;;;2.60;1.35;;;6.10;99.90;;;;;;5045918;28;20585;-71
2023/11/04 06:12:37;;;;;;;7.75;2.25;;;6.10;99.90;;;;;;5046075;28;20044;-71
2023/11/04 06:15:03;;;;;;;3.38;0.80;;;6.10;99.90;;;;;;5039775;28;20052;-71
2023/11/04 06:17:30;;;;;;;4.65;0.93;;;6.20;99.90;;;;;;5045615;28;20419;-71
2023/11/04 06:19:56;;;;;;;2.75;1.48;;;6.20;99.90;;;;;;5043219;28;20044;-71
2023/11/04 06:22:22;;;;;;;1.77;0.90;;;6.20;99.90;;;;;;5045284;28;20207;-71
2023/11/04 06:24:48;;;;;;;2.50;1.02;;;6.20;99.90;;;;;;5045320;28;20583;-70
2023/11/04 06:27:14;;;;;;;3.53;1.15;;;6.20;99.90;;;;;;5042484;28;20118;-70
2023/11/04 06:29:41;;;;;;;;;;;6.20;99.90;;;;;;5043230;28;20065;-69
2023/11/04 06:32:07;;;;;;;1.40;1.10;;;6.20;99.90;;;;;;5063413;28;20067;-70
2023/11/04 06:34:34;;;;;;;1.52;1.05;;;6.20;99.90;;;;;;5046921;28;20058;-69
2023/11/04 06:37:02;;;;;;;2.53;1.27;;;6.30;99.90;;;;;;5067797;28;20048;-71
2023/11/04 06:39:28;;;;;;;6.40;1.15;;;6.30;99.90;;;;;;5066998;28;20087;-67
2023/11/04 06:41:53;;;;;;;4.10;1.42;;;6.30;99.90;;;;;;5069459;28;20091;-67
2023/11/04 06:44:19;;;;;;;3.00;1.23;;;6.30;99.90;;;;;;5066971;28;20059;-68
2023/11/04 06:46:52;;;;;;;2.08;1.02;;;6.30;99.90;;;;;;5068825;28;20048;-68
2023/11/04 06:49:19;;;;;;;3.40;1.10;;;6.30;99.90;;;;;;5066121;28;20044;-68
2023/11/04 06:51:44;;;;;;;2.70;1.20;;;6.30;99.90;;;;;;5066964;28;20098;-67
2023/11/04 06:54:10;;;;;;;1.85;1.10;;;6.30;99.90;;;;;;5065829;28;20044;-68
2023/11/04 06:56:36;;;;;;;1.90;1.35;;;6.30;99.90;;;;;;5067253;28;20052;-68
2023/11/04 06:59:02;;;;;;;4.90;1.48;;;6.30;99.90;;;;;;5065304;28;20040;-68
2023/11/04 07:01:28;;;;;;;4.45;1.13;;;6.30;99.90;;;;;;5064221;28;21003;-68
2023/11/04 07:03:53;;;;;;;3.30;1.42;;;6.40;99.90;;;;;;5064863;28;20770;-68
2023/11/04 07:06:19;;;;;;;2.90;1.42;;;6.40;99.90;;;;;;5066283;28;20090;-70
2023/11/04 07:08:46;;;;;;;2.33;1.20;;;6.40;99.90;;;;;;5066483;28;20124;-70
2023/11/04 07:11:19;;;;;;;4.38;1.00;;;6.40;99.90;;;;;;5064824;28;20037;-69
2023/11/04 07:13:45;;;;;;;2.42;1.58;;;6.40;99.90;;;;;;5065319;28;20420;-68
2023/11/04 07:16:12;;;;;;;4.18;1.20;;;6.40;99.90;;;;;;5066836;28;20062;-68
2023/11/04 07:18:41;;;;;;;2.25;1.15;;;6.40;99.90;;;;;;5061597;28;20036;-71
2023/11/04 07:21:07;;;;;;;6.53;1.33;;;6.40;99.90;;;;;;5065040;28;20033;-71
2023/11/04 07:23:33;;;;;;;2.47;1.30;;;6.40;99.90;;;;;;5060290;28;20048;-71
2023/11/04 07:25:59;;;;;;;5.22;1.17;;;6.40;99.90;;;;;;5061751;28;20131;-69
2023/11/04 07:28:34;;;;;;;1.77;1.27;;;6.50;99.90;;;;;;5067887;28;20132;-67
2023/11/04 07:31:00;;;;;;;2.95;1.40;;;6.50;99.90;;;;;;5066392;28;20115;-68
2023/11/04 07:33:25;;;;;;;4.05;1.75;;;6.50;99.90;;;;;;5074333;28;20543;-68
2023/11/04 07:35:51;;;;;;;2.65;1.10;;;6.40;99.90;;;;;;5068827;28;20040;-67
2023/11/04 07:38:17;;;;;;;4.80;1.42;;;6.40;99.90;;;;;;5073447;28;20116;-67
2023/11/04 07:40:43;;;;;;;;;;;6.40;99.90;;;;;;5069689;28;20044;-68
2023/11/04 07:43:10;;;;;;;3.20;1.08;;;6.40;99.90;;;;;;5069923;28;19916;-68
2023/11/04 07:45:35;;;;;;;2.38;1.77;;;6.40;99.90;;;;;;5065664;28;20052;-68
2023/11/04 07:48:01;;;;;;;3.15;1.58;;;6.40;99.90;;;;;;5071904;28;20037;-66
2023/11/04 07:50:26;;;;;;;4.47;1.65;;;6.40;99.90;;;;;;5069252;28;20048;-68
2023/11/04 07:52:52;;;;;;;3.08;1.60;;;6.40;99.90;;;;;;5071071;28;20047;-68
2023/11/04 07:55:21;;;;;;;2.20;1.52;;;6.40;99.90;;;;;;5069243;28;20036;-66
2023/11/04 07:57:47;;;;;;;1.98;1.40;;;6.40;99.90;;;;;;5068413;28;20119;-69
2023/11/04 08:00:13;;;;;;;2.55;1.50;;;6.40;99.90;;;;;;5067122;28;20123;-68
2023/11/04 08:02:40;;;;;;;5.20;1.92;;;6.40;99.90;;;;;;5073430;28;20127;-68
2023/11/04 08:05:09;;;;;;;6.13;1.52;;;6.40;99.90;;;;;;5074184;28;20040;-69
2023/11/04 08:07:35;;;;;;;2.83;2.13;;;6.40;99.90;;;;;;5069433;28;20485;-70
2023/11/04 08:10:03;;;;;;;2.42;1.48;;;6.40;99.90;;;;;;5067777;28;20048;-69
2023/11/04 08:12:29;;;;;;;4.60;1.77;;;6.40;99.90;;;;;;5068682;28;20094;-68
2023/11/04 08:14:54;;;;;;;5.43;2.00;;;6.40;99.90;;;;;;5068220;28;20563;-68
2023/11/04 08:17:21;;;;;;;1.42;1.23;;;6.40;99.90;;;;;;5070270;28;20123;-69
2023/11/04 08:19:47;;;;;;;3.22;1.48;;;6.40;99.90;;;;;;5068198;28;20064;-68
2023/11/04 08:22:13;;;;;;;2.97;1.35;;;6.40;99.90;;;;;;5074647;28;20060;-69
2023/11/04 08:24:39;;;;;;;1.83;1.48;;;6.40;99.90;;;;;;5069036;28;20039;-69
2023/11/04 08:27:05;;;;;;;3.13;1.38;;;6.40;99.90;;;;;;5074050;28;20044;-69
2023/11/04 08:29:30;;;;;;;1.20;1.10;;;6.40;99.90;;;;;;5067782;28;20478;-68
2023/11/04 08:31:57;;;;;;;1.33;1.10;;;6.50;99.90;;;;;;5078284;28;20392;-69
2023/11/04 08:34:22;;;;;;;4.40;1.35;;;6.50;99.90;;;;;;5070283;28;20097;-68
2023/11/04 08:36:48;;;;;;;2.15;1.35;;;6.50;99.90;;;;;;5072177;28;20044;-69
2023/11/04 08:39:14;;;;;;;;;;;6.50;99.90;;;;;;5068578;28;20512;-68
2023/11/04 08:41:40;;;;;;;1.70;0.93;;;6.60;99.90;;;;;;5062784;28;19965;-69
2023/11/04 08:44:05;;;;;;;3.95;1.23;;;6.60;99.90;;;;;;5069120;28;20050;-68
2023/11/04 08:46:31;;;;;;;1.35;1.10;;;6.60;99.90;;;;;;5073275;28;20040;-68
2023/11/04 08:48:57;;;;;;;4.13;1.80;;;6.60;99.90;;;;;;5071570;28;20441;-69
2023/11/04 08:51:22;;;;;;;;;;;6.50;99.90;;;;;;5068460;28;20044;-65
2023/11/04 08:53:48;;;;;;;2.92;1.42;;;6.50;99.90;;;;;;5070175;28;19916;-67
2023/11/04 08:56:14;;;;;;;;;;;6.50;99.90;;;;;;5067994;28;20044;-66
2023/11/04 08:58:42;;;;;;;3.17;2.03;;;6.50;99.90;;;;;;5070435;28;19920;-68
2023/11/04 09:01:09;;;;;;;2.90;1.90;;;6.50;99.90;;;;;;5065369;28;20045;-68
2023/11/04 09:03:35;;;;;;;2.00;1.67;;;6.50;99.90;;;;;;5069241;28;20052;-68
2023/11/04 09:06:01;;;;;;;4.32;2.00;;;6.50;99.90;;;;;;5067121;28;20139;-68
2023/11/04 09:08:27;;;;;;;2.75;2.00;;;6.40;99.90;;;;;;5068877;28;20143;-70
2023/11/04 09:10:53;;;;;;;1.60;1.40;;;6.40;99.90;;;;;;5070712;28;20048;-67
2023/11/04 09:13:19;;;;;;;2.72;1.52;;;6.40;99.90;;;;;;5089824;28;20033;-69
2023/11/04 09:15:45;;;;;;;1.77;1.50;;;6.40;99.90;;;;;;5065636;28;20075;-70
2023/11/04 09:18:11;;;;;;;7.38;1.67;;;6.50;99.90;;;;;;5067979;28;20550;-68
2023/11/04 09:20:37;;;;;;;3.08;1.70;;;6.40;99.90;;;;;;5068671;28;20109;-69
2023/11/04 09:23:02;;;;;;;;;;;6.50;99.90;;;;;;5068412;28;20037;-69
2023/11/04 09:25:28;;;;;;;3.58;1.85;;;6.50;99.90;;;;;;5067955;28;19920;-69
2023/11/04 09:27:54;;;;;;;2.10;1.40;;;6.40;99.90;;;;;;5068028;28;20036;-67
2023/11/04 09:30:20;;;;;;;3.80;1.38;;;6.50;99.90;;;;;;5066922;28;20031;-70
2023/11/04 09:32:45;;;;;;;2.10;1.40;;;6.40;99.90;;;;;;5067489;28;20044;-69
2023/11/04 09:35:12;;;;;;;;;;;6.50;99.90;;;;;;5067970;28;20439;-69
2023/11/04 09:37:39;;;;;;;3.70;1.52;;;6.50;99.90;;;;;;5067309;28;19917;-67
2023/11/04 09:40:05;;;;;;;5.38;1.02;;;6.50;99.90;;;;;;5071026;28;20048;-70
2023/11/04 09:42:31;;;;;;;3.22;1.50;;;6.60;99.90;;;;;;5066875;28;20044;-70
2023/11/04 09:44:57;;;;;;;2.53;1.10;;;6.60;99.90;;;;;;5074617;28;20046;-70
2023/11/04 09:47:23;;;;;;;4.07;1.45;;;6.50;99.90;;;;;;5064799;28;20040;-68
2023/11/04 09:49:49;;;;;;;1.40;1.20;;;6.60;99.90;;;;;;5069988;28;20063;-70
2023/11/04 09:52:15;;;;;;;1.50;1.10;;;6.60;99.90;;;;;;5060052;28;20051;-70
2023/11/04 09:54:46;;;;;;;2.67;1.20;;;6.60;99.90;;;;;;5066811;28;20107;-69
2023/11/04 09:57:14;;;;;;;1.60;1.27;;;6.60;99.90;;;;;;5066653;28;20048;-69
2023/11/04 09:59:41;;;;;;;2.08;1.40;;;6.60;99.90;;;;;;5069103;28;20072;-68
2023/11/04 10:02:10;;;;;;;1.38;1.10;;;6.60;99.90;;;;;;5070804;28;20508;-69
2023/11/04 10:04:36;;;;;;;2.53;1.40;;;6.80;99.90;;;;;;5069189;28;20540;-70
2023/11/04 10:07:02;;;;;;;6.65;1.67;;;6.80;99.90;;;;;;5068035;28;20052;-69
2023/11/04 10:09:29;;;;;;;3.85;1.08;;;6.90;99.90;;;;;;5072030;28;20132;-68
2023/11/04 10:11:55;;;;;;;8.63;1.45;;;6.90;99.90;;;;;;5066700;28;20041;-70
2023/11/04 10:14:20;;;;;;;1.40;1.10;;;6.90;99.90;;;;;;5066054;28;20097;-69
2023/11/04 10:16:46;;;;;;;;;;;6.90;99.90;;;;;;5067564;28;20044;-69
2023/11/04 10:19:13;;;;;;;2.95;1.10;;;6.90;99.90;;;;;;5069093;28;20080;-67
2023/11/04 10:21:39;;;;;;;2.05;1.05;;;6.80;99.90;;;;;;5081624;28;20046;-66
2023/11/04 10:24:05;;;;;;;2.67;1.02;;;6.80;99.90;;;;;;5065833;28;20049;-70
2023/11/04 10:26:31;;;;;;;4.32;1.20;;;6.80;99.90;;;;;;5066609;28;20191;-69
2023/11/04 10:28:57;;;;;;;2.72;1.27;;;6.80;99.90;;;;;;5066303;28;20036;-69
2023/11/04 10:31:25;;;;;;;4.07;1.45;;;6.70;99.90;;;;;;5063955;28;20043;-70
2023/11/04 10:33:55;;;;;;;2.40;1.20;;;6.80;99.90;;;;;;5072427;28;20053;-69
2023/11/04 10:36:21;;;;;;;4.78;1.30;;;6.80;99.90;;;;;;5065684;28;20143;-69
2023/11/04 10:38:55;;;;;;;1.67;0.95;;;6.80;99.90;;;;;;5066148;28;20798;-69
2023/11/04 10:41:27;;;;;;;2.45;1.30;;;6.90;99.90;;;;;;5065177;28;20040;-69
2023/11/04 10:44:10;;;;;;;3.88;0.90;;;6.90;99.90;;;;;;5063288;28;20120;-69
2023/11/04 10:46:58;;;;;;;2.45;1.00;;;6.90;99.90;;;;;;5067189;28;20554;-69
2023/11/04 10:49:32;;;;;;;2.05;0.95;;;7.00;99.90;;;;;;5064795;28;20094;-70
2023/11/04 10:52:05;;;;;;;1.35;0.82;;;7.00;99.90;;;;;;5062974;28;20040;-69
2023/11/04 10:54:40;;;;;;;5.13;1.27;;;7.00;99.90;;;;;;5069136;28;20043;-70
2023/11/04 10:57:19;;;;;;;2.05;1.00;;;7.00;99.90;;;;;;5066117;28;20056;-69
2023/11/04 10:59:52;;;;;;;3.92;1.10;;;7.00;99.90;;;;;;5062840;28;20035;-69
2023/11/04 11:02:18;;;;;;;4.75;0.98;;;7.10;99.90;;;;;;5061928;28;20119;-68
2023/11/04 11:04:46;;;;;;;1.35;0.70;;;7.10;99.90;;;;;;5066655;28;20040;-69
2023/11/04 11:07:16;;;;;;;7.65;1.40;;;7.10;99.90;;;;;;5067270;28;20041;-70
2023/11/04 11:09:42;;;;;;;5.07;0.90;;;7.20;99.90;;;;;;5070093;28;20045;-68
2023/11/04 11:12:20;;;;;;;1.77;0.80;;;7.20;99.90;;;;;;5066585;28;20040;-68
2023/11/04 11:14:47;;;;;;;3.65;1.17;;;7.30;99.90;;;;;;5068619;28;20052;-69
2023/11/04 11:17:13;;;;;;;4.38;1.60;;;7.20;99.90;;;;;;5071481;28;20071;-70
2023/11/04 11:19:52;;;;;;;1.45;0.63;;;7.30;99.90;;;;;;5071084;28;20539;-69
2023/11/04 11:22:23;;;;;;;5.97;0.95;;;7.40;99.90;;;;;;5064894;28;20036;-69
2023/11/04 11:24:51;;;;;;;4.20;1.00;;;7.40;99.90;;;;;;5068088;28;20041;-69
2023/11/04 11:27:17;;;;;;;3.65;1.08;;;7.40;99.90;;;;;;5067067;28;20124;-69
2023/11/04 11:29:47;;;;;;;3.75;0.93;;;7.40;99.90;;;;;;5066450;28;20444;-70
2023/11/04 11:32:13;;;;;;;1.83;1.05;;;7.50;99.90;;;;;;5069676;28;20040;-69
2023/11/04 11:34:52;;;;;;;;;;;7.50;99.90;;;;;;5066530;28;20029;-70
2023/11/04 11:37:20;;;;;;;3.35;1.17;;;7.50;99.90;;;;;;5066562;28;19927;-69
2023/11/04 11:39:46;;;;;;;6.65;1.23;;;7.50;99.90;;;;;;5067056;28;20554;-69
2023/11/04 11:42:12;;;;;;;3.40;0.95;;;7.40;99.90;;;;;;5070449;28;20066;-70
2023/11/04 11:44:38;;;;;;;6.38;1.27;;;7.40;99.90;;;;;;5067229;28;20047;-69
2023/11/04 11:47:04;;;;;;;;;;;7.30;99.90;;;;;;5073153;28;20041;-68
2023/11/04 11:49:32;;;;;;;2.42;0.77;;;7.30;99.90;;;;;;5067236;28;19924;-66
2023/11/04 11:51:59;;;;;;;2.80;1.00;;;7.20;99.90;;;;;;5070257;28;20040;-70
2023/11/04 11:54:24;;;;;;;2.97;1.00;;;7.10;99.90;;;;;;5064881;28;20044;-68
2023/11/04 11:56:52;;;;;;;2.40;1.10;;;7.10;99.90;;;;;;5067354;28;20443;-70
2023/11/04 11:59:18;;;;;;;2.65;0.98;;;7.10;99.90;;;;;;5061030;28;20054;-70
2023/11/04 12:01:44;;;;;;;2.05;1.15;;;7.00;99.90;;;;;;5069606;28;20032;-70
2023/11/04 12:04:09;;;;;;;6.82;1.60;;;7.00;99.90;;;;;;5066678;28;20040;-70
2023/11/04 12:06:36;;;;;;;5.07;1.23;;;7.00;99.90;;;;;;5066544;28;20665;-69
2023/11/04 12:09:03;;;;;;;3.08;1.23;;;7.00;99.90;;;;;;5058921;28;20037;-70
2023/11/04 12:11:30;;;;;;;2.22;1.20;;;7.10;99.90;;;;;;5059847;28;20044;-68
2023/11/04 12:13:56;;;;;;;9.88;1.77;;;7.10;99.90;;;;;;5061781;28;20645;-66
2023/11/04 12:16:22;;;;;;;6.85;1.58;;;6.90;99.90;;;;;;5063392;28;20127;-69
2023/11/04 12:18:48;;;;;;;5.00;1.58;;;6.90;99.90;;;;;;5071509;28;20050;-69
2023/11/04 12:21:15;;;;;;;2.47;1.30;;;6.90;99.90;;;;;;5068838;28;21903;-67
2023/11/04 12:23:41;;;;;;;9.75;2.15;;;6.90;99.90;;;;;;5066918;28;20116;-69
2023/11/04 12:26:07;;;;;;;5.18;1.40;;;6.90;99.90;;;;;;5069583;28;20068;-70
2023/11/04 12:28:41;;;;;;;1.35;0.90;;;6.90;99.90;;;;;;5068787;28;20036;-70
2023/11/04 12:31:07;;;;;;;2.30;1.25;;;6.80;99.90;;;;;;5066035;28;20043;-69
2023/11/04 12:33:34;;;;;;;6.75;1.40;;;6.80;99.90;;;;;;5068829;28;20037;-70
2023/11/04 12:36:02;;;;;;;4.15;1.58;;;6.90;99.90;;;;;;5069758;28;20051;-68
2023/11/04 12:38:28;;;;;;;5.20;1.48;;;6.80;99.90;;;;;;5066194;28;20048;-69
2023/11/04 12:40:55;;;;;;;3.17;1.42;;;6.90;99.90;;;;;;5069222;28;20043;-66
2023/11/04 12:43:23;;;;;;;2.63;1.27;;;6.80;99.90;;;;;;5067091;28;20128;-67
2023/11/04 12:45:52;;;;;;;4.40;1.25;;;6.80;99.90;;;;;;5066598;28;20045;-67
2023/11/04 12:48:18;;;;;;;5.35;1.10;;;6.90;99.90;;;;;;5069354;28;20067;-67
2023/11/04 12:50:47;;;;;;;2.60;1.20;;;6.90;99.90;;;;;;5069672;28;20040;-68
2023/11/04 12:53:12;;;;;;;3.03;1.50;;;7.00;99.90;;;;;;5073497;28;20044;-68
2023/11/04 12:55:39;;;;;;;4.25;1.48;;;7.00;99.90;;;;;;5068639;28;20109;-69
2023/11/04 12:58:06;;;;;;;2.67;1.48;;;7.00;99.90;;;;;;5071071;28;20132;-68